• Join FlightAware (Why Join?)
  • Login
  • US Flag 
05:18AM EDT


 

Airport Tracker/Info


-or-


 

Live Flight TrackerFlight Track Log ✈ UPS909 ✈ 28-Dec-2013 ✈ KONT - KRFD

Flight Track Log - Related Links

Times and Time Zones

All times are in EST time to prevent confusion due to time zone crossing. See the UPS909 flight status page for this flight to view local times or setup timezone preferences in your user account.

Time Position Orientation Groundspeed Altitude Reporting Facility
EST Latitude Longitude Course Direction KTS MPH feet Rate Location/Type
08:04AM 34.0259 -117.5706 212° Southwest 213 245 3,300  Level FlightAware ADS-B
08:04AM 34.0146 -117.5912 237° Southwest 229 264 4,200 2,760 Climbing FlightAware ADS-B
08:05AM 34.0140 -117.6183 268° West 247 284 5,200 2,700 Climbing FlightAware ADS-B
08:05AM 34.0147 -117.6468 272° West 261 300 6,000 2,400 Climbing FlightAware ADS-B
08:05AM 34.0154 -117.6762 272° West 262 302 6,800 1,560 Climbing FlightAware ADS-B
08:06AM 34.0224 -117.7039 287° West 255 293 7,100 1,500 Climbing FlightAware ADS-B
08:06AM 34.0367 -117.7265 307° West 264 304 7,800 2,820 Climbing FlightAware ADS-B
08:06AM 34.0501 -117.7421 316° Northwest 260 299 8,800 3,120 Climbing FlightAware ADS-B
08:07AM 34.0664 -117.7610 316° Northwest 269 310 9,600 2,700 Climbing FlightAware ADS-B
08:07AM 34.1044 -117.8071 315° West 295 339 11,500 2,760 Climbing FlightAware ADS-B
08:08AM 34.1467 -117.8486 321° Northwest 341 392 13,400 2,520 Climbing FlightAware ADS-B
08:08AM 34.1839 -117.8542 353° North 383 441 14,000 2,100 Climbing FlightAware ADS-B
08:09AM 34.2098 -117.8442 18° North 399 459 14,800 3,180 Climbing FlightAware ADS-B
08:09AM 34.2435 -117.8084 41° Northeast 409 471 16,100 4,380 Climbing FlightAware ADS-B
08:10AM 34.2776 -117.7332 61° Northeast 404 465 19,200 3,840 Climbing FlightAware ADS-B
08:10AM 34.3182 -117.6469 60° Northeast 424 488 21,300 2,940 Climbing FlightAware ADS-B
08:11AM 34.3555 -117.5633 62° Northeast 437 503 23,200 2,640 Climbing FlightAware ADS-B
08:12AM 34.3900 -117.4880 61° Northeast 448 516 24,800 2,520 Climbing FlightAware ADS-B
08:12AM 34.4291 -117.4023 61° Northeast 463 533 26,400 2,100 Climbing FlightAware ADS-B
08:13AM 34.4764 -117.2990 61° Northeast 483 556 27,600 1,260 Climbing FlightAware ADS-B
08:14AM 34.5224 -117.1978 61° Northeast 516 594 28,200 1,200 Climbing FlightAware ADS-B
08:14AM 34.5659 -117.1017 61° Northeast 530 610 29,300 2,280 Climbing FlightAware ADS-B
08:15AM 34.6227 -116.9755 61° Northeast 527 606 31,400 3,720 Climbing FlightAware ADS-B
08:15AM 34.6306 -116.9580 61° Northeast 526 605 32,700 2,400 Climbing FlightAware ADS-B
08:16AM 34.6697 -116.8712 61° Northeast 527 606 33,000 1,140 Climbing FlightAware ADS-B
08:16AM 34.7168 -116.7663 61° Northeast 534 615 34,100 1,500 Climbing FlightAware ADS-B
08:17AM 34.7641 -116.6605 61° Northeast 544 626 35,000 660 Climbing FlightAware ADS-B
08:18AM 34.8112 -116.5549 61° Northeast 551 634 35,000  Level FlightAware ADS-B (KVGT)
08:18AM 34.8481 -116.4718 62° Northeast 549 632 35,000  Level FlightAware ADS-B (KVGT)
08:19AM 34.8846 -116.3893 62° Northeast 546 628 35,000  Level FlightAware ADS-B
08:19AM 34.9256 -116.2966 62° Northeast 545 627 35,000  Level FlightAware ADS-B (KVGT)
08:20AM 34.9620 -116.2142 62° Northeast 542 624 35,000  Level FlightAware ADS-B (KVGT)
08:20AM 35.0029 -116.1212 62° Northeast 541 623 35,000  Level FlightAware ADS-B (KVGT)
08:21AM 35.0386 -116.0400 62° Northeast 535 616 35,000  Level FlightAware ADS-B (KVGT)
08:21AM 35.0741 -115.9588 62° Northeast 535 616 35,000  Level FlightAware ADS-B (KVGT)
08:22AM 35.1097 -115.8773 62° Northeast 535 616 35,000  Level FlightAware ADS-B (KVGT)
08:23AM 35.1453 -115.7957 62° Northeast 535 616 35,000  Level FlightAware ADS-B (KVGT)
08:24AM 35.2166 -115.6314 62° Northeast 534 615 35,000  Level FlightAware ADS-B (KVGT)
08:25AM 35.2872 -115.4679 62° Northeast 534 615 35,000  Level FlightAware ADS-B (KVGT)
08:25AM 35.3221 -115.3869 62° Northeast 534 615 35,000  Level FlightAware ADS-B (KVGT)
08:26AM 35.3572 -115.3052 62° Northeast 534 615 35,000  Level FlightAware ADS-B (KVGT)
08:26AM 35.3926 -115.2225 62° Northeast 533 613 35,000  Level FlightAware ADS-B (KVGT)
08:27AM 35.4325 -115.1291 62° Northeast 534 615 35,000  Level FlightAware ADS-B (KVGT)
08:27AM 35.4669 -115.0483 62° Northeast 533 613 35,000  Level FlightAware ADS-B (KVGT)
08:28AM 35.5066 -114.9549 62° Northeast 534 615 35,000  Level FlightAware ADS-B (KVGT)
08:28AM 35.5418 -114.8719 62° Northeast 534 615 35,000  Level FlightAware ADS-B (KVGT)
08:29AM 35.5764 -114.7901 62° Northeast 534 615 35,000  Level FlightAware ADS-B (KVGT)
08:30AM 35.6456 -114.6258 63° Northeast 537 618 35,000  Level FlightAware ADS-B (KVGT)
08:31AM 35.7153 -114.4595 63° Northeast 537 618 35,000  Level FlightAware ADS-B (KVGT)
08:32AM 35.7833 -114.2964 63° Northeast 536 617 35,000  Level FlightAware ADS-B (KVGT)
08:32AM 35.8183 -114.2121 63° Northeast 535 616 35,000  Level FlightAware ADS-B (KVGT)
08:33AM 35.8522 -114.1301 63° Northeast 535 616 35,000  Level FlightAware ADS-B (KVGT)
08:33AM 35.8865 -114.0473 63° Northeast 534 615 35,000  Level FlightAware ADS-B (KVGT)
08:34AM 35.9253 -113.9531 63° Northeast 534 615 35,000  Level FlightAware ADS-B (KVGT)
08:34AM 35.9589 -113.8714 63° Northeast 534 615 35,000  Level FlightAware ADS-B (KVGT)
08:35AM 35.9977 -113.7769 63° Northeast 534 615 35,000  Level FlightAware ADS-B (KVGT)
08:35AM 36.0315 -113.6941 63° Northeast 535 616 35,000  Level FlightAware ADS-B (KVGT)
08:36AM 36.0654 -113.6111 63° Northeast 534 615 35,000  Level FlightAware ADS-B (KVGT)
08:36AM 36.0988 -113.5291 63° Northeast 534 615 35,000  Level FlightAware ADS-B (KVGT)
08:37AM 36.1331 -113.4446 63° Northeast 531 611 35,000  Level FlightAware ADS-B (KVGT)
08:38AM 36.1995 -113.2802 63° Northeast 529 609 35,000  Level FlightAware ADS-B (KVGT)
08:39AM 36.2667 -113.1130 63° Northeast 528 608 35,000  Level FlightAware ADS-B (KVGT)
08:40AM 36.2996 -113.0310 64° Northeast 528 608 35,000  Level FlightAware ADS-B (KVGT)
08:40AM 36.3329 -112.9476 64° Northeast 527 606 35,000  Level FlightAware ADS-B (KVGT)
08:41AM 36.3811 -112.8265 64° Northeast 526 605 35,000  Level FlightAware ADS-B (KVGT)
08:42AM 36.4359 -112.6885 64° Northeast 524 603 35,000  Level FlightAware ADS-B (KVGT)
08:42AM 36.4891 -112.5536 64° Northeast 523 602 35,000  Level FlightAware ADS-B (KVGT)
08:43AM 36.5376 -112.4304 64° Northeast 526 605 35,000  Level FlightAware ADS-B (KVGT)
08:44AM 36.6025 -112.2647 64° Northeast 525 604 35,000  Level FlightAware ADS-B (KVGT)
08:45AM 36.6642 -112.1056 64° Northeast 525 604 35,000  Level Los Angeles Center
08:46AM 36.7275 -111.9422 64° Northeast 526 605 35,000  Level Los Angeles Center
08:47AM 36.7914 -111.7789 64° Northeast 527 606 35,000  Level Los Angeles Center
08:48AM 36.8536 -111.6153 65° Northeast 525 604 35,000  Level Los Angeles Center
08:49AM 36.9289 -111.4183 64° Northeast 527 606 35,000  Level Los Angeles Center
08:50AM 36.9917 -111.2542 64° Northeast 526 605 35,000  Level Los Angeles Center
08:51AM 37.0531 -111.0897 65° Northeast 526 605 35,000  Level Los Angeles Center
08:53AM 37.1261 -110.8931 65° Northeast 524 603 35,000  Level Denver Center
08:59AM 37.5213 -109.8185 65° Northeast 520 598 35,000  Level FlightAware ADS-B (KMTJ)
09:00AM 37.5487 -109.7425 66° East 519 597 35,000  Level FlightAware ADS-B (KMTJ)
09:00AM 37.5763 -109.6655 66° East 519 597 35,000  Level FlightAware ADS-B (KMTJ)
09:01AM 37.6177 -109.5503 66° East 518 596 35,000  Level FlightAware ADS-B (KMTJ)
09:01AM 37.6605 -109.4302 66° East 518 596 35,000  Level FlightAware ADS-B (KMTJ)
09:02AM 37.6878 -109.3536 66° East 517 595 35,000  Level FlightAware ADS-B (KMTJ)
09:02AM 37.7191 -109.2654 66° East 517 595 35,000  Level FlightAware ADS-B (KMTJ)
09:03AM 37.7505 -109.1766 66° East 515 593 35,000  Level FlightAware ADS-B (KMTJ)
09:04AM 37.7892 -109.0670 66° East 515 593 35,000  Level FlightAware ADS-B (KMTJ)
09:04AM 37.8275 -108.9577 66° East 514 592 35,000  Level FlightAware ADS-B (KMTJ)
09:05AM 37.8663 -108.8467 66° East 513 590 35,000  Level FlightAware ADS-B (KMTJ)
09:06AM 37.9043 -108.7380 66° East 512 589 35,000  Level FlightAware ADS-B (KMTJ)
09:06AM 37.9423 -108.6286 66° East 512 589 35,000  Level FlightAware ADS-B (KMTJ)
09:07AM 37.9704 -108.5474 66° East 513 590 35,000  Level FlightAware ADS-B (KMTJ)
09:07AM 37.9995 -108.4631 66° East 512 589 35,000  Level FlightAware ADS-B (KMTJ)
09:08AM 38.0373 -108.3533 66° East 512 589 35,000  Level FlightAware ADS-B (KMTJ)
09:08AM 38.0649 -108.2727 66° East 512 589 35,000  Level FlightAware ADS-B (KMTJ)
09:09AM 38.0967 -108.1797 66° East 512 589 35,000  Level FlightAware ADS-B (KMTJ)
09:10AM 38.1334 -108.0721 67° East 513 590 35,000  Level FlightAware ADS-B (KMTJ)
09:10AM 38.1715 -107.9596 67° East 513 590 35,000  Level FlightAware ADS-B (KMTJ)
09:11AM 38.1996 -107.8769 67° East 511 588 35,000  Level FlightAware ADS-B (KMTJ)
09:11AM 38.2333 -107.7770 67° East 511 588 35,000  Level FlightAware ADS-B (KMTJ)
09:12AM 38.2611 -107.6942 67° East 510 587 35,000  Level FlightAware ADS-B (KMTJ)
09:13AM 38.2983 -107.5830 67° East 509 586 35,000  Level FlightAware ADS-B (KMTJ)
09:13AM 38.3257 -107.5013 67° East 509 586 35,000  Level FlightAware ADS-B (KMTJ)
09:14AM 38.3533 -107.4183 67° East 508 585 35,000  Level FlightAware ADS-B (KMTJ)
09:14AM 38.3896 -107.3090 67° East 507 583 35,000  Level FlightAware ADS-B (KMTJ)
09:15AM 38.4263 -107.1980 67° East 507 583 35,000  Level FlightAware ADS-B (KMTJ)
09:16AM 38.4625 -107.0879 67° East 505 581 35,000  Level FlightAware ADS-B (KMTJ)
09:16AM 38.4894 -107.0062 67° East 504 580 35,000  Level FlightAware ADS-B (KMTJ)
09:17AM 38.5171 -106.9215 67° East 503 579 35,000  Level FlightAware ADS-B (KMTJ)
09:17AM 38.5473 -106.8290 67° East 503 579 35,000  Level FlightAware ADS-B (KMTJ)
09:18AM 38.5680 -106.7652 67° East 503 579 35,000  Level FlightAware ADS-B (KMTJ)
09:19AM 38.6320 -106.5676 67° East 501 577 35,000  Level FlightAware ADS-B (KMTJ)
09:19AM 38.6594 -106.4826 68° East 501 577 35,000  Level FlightAware ADS-B (KEIK)
09:20AM 38.6926 -106.3793 68° East 501 577 35,000  Level FlightAware ADS-B (KEIK)
09:20AM 38.7209 -106.2908 68° East 500 575 35,000  Level FlightAware ADS-B (KMTJ)
09:21AM 38.7555 -106.1824 68° East 500 575 35,000  Level FlightAware ADS-B (KMTJ)
09:22AM 38.7787 -106.1093 68° East 499 574 35,000  Level FlightAware ADS-B (KEIK)
09:22AM 38.8201 -105.9788 68° East 497 572 35,000  Level FlightAware ADS-B (KEIK)
09:23AM 38.8540 -105.8712 68° East 498 573 35,000  Level FlightAware ADS-B (KEIK)
09:24AM 38.8744 -105.8063 68° East 498 573 35,000  Level FlightAware ADS-B (KEIK)
09:24AM 38.9244 -105.6466 68° East 499 574 35,000  Level FlightAware ADS-B (KEIK)
09:25AM 38.9586 -105.5369 68° East 498 573 35,000  Level FlightAware ADS-B (KEIK)
09:26AM 38.9920 -105.4292 68° East 497 572 35,000  Level FlightAware ADS-B (KEIK)
09:26AM 39.0262 -105.3188 68° East 498 573 35,000  Level FlightAware ADS-B (KEIK)
09:27AM 39.0605 -105.2076 68° East 498 573 35,000  Level FlightAware ADS-B (KEIK)
09:28AM 39.0934 -105.1002 68° East 496 571 35,000  Level FlightAware ADS-B (KEIK)
09:28AM 39.1257 -104.9942 69° East 496 571 35,000  Level FlightAware ADS-B (KEIK)
09:29AM 39.1625 -104.8733 69° East 496 571 35,000  Level FlightAware ADS-B (KBJC)
09:30AM 39.2023 -104.7419 69° East 494 568 35,000  Level FlightAware ADS-B (KEIK)
09:31AM 39.2504 -104.5822 69° East 493 567 35,000  Level FlightAware ADS-B (KEIK)
09:32AM 39.2852 -104.4659 69° East 493 567 35,000  Level FlightAware ADS-B (KEIK)
09:32AM 39.3166 -104.3610 69° East 493 567 35,000  Level FlightAware ADS-B (KEIK)
09:33AM 39.3509 -104.2454 69° East 492 566 35,000  Level FlightAware ADS-B (KEIK)
09:34AM 39.3843 -104.1339 69° East 492 566 35,000  Level FlightAware ADS-B (KEIK)
09:34AM 39.4148 -104.0302 69° East 492 566 35,000  Level FlightAware ADS-B (KEIK)
09:35AM 39.4497 -103.9106 69° East 493 567 35,000  Level FlightAware ADS-B (KEIK)
09:36AM 39.4800 -103.8063 69° East 494 568 35,000  Level FlightAware ADS-B (KEIK)
09:36AM 39.5140 -103.6895 69° East 494 568 35,000  Level FlightAware ADS-B (KEIK)
09:37AM 39.5443 -103.5851 69° East 493 567 35,000  Level FlightAware ADS-B (KEIK)
09:38AM 39.5780 -103.4683 69° East 494 568 35,000  Level FlightAware ADS-B (KEIK)
09:38AM 39.6092 -103.3602 69° East 494 568 35,000  Level FlightAware ADS-B (KEIK)
09:39AM 39.6431 -103.2415 70° East 494 568 35,000  Level FlightAware ADS-B (KEIK)
09:40AM 39.6651 -103.1639 70° East 492 566 35,000  Level FlightAware ADS-B (KEIK)
09:40AM 39.7033 -103.0294 70° East 492 566 35,000  Level FlightAware ADS-B (KEIK)
09:41AM 39.7321 -102.9273 70° East 493 567 35,000  Level FlightAware ADS-B (KEIK)
09:42AM 39.7673 -102.8023 70° East 494 568 35,000  Level FlightAware ADS-B (KEIK)
09:42AM 39.8007 -102.6833 70° East 495 570 35,000  Level FlightAware ADS-B (KEIK)
09:43AM 39.8335 -102.5656 70° East 494 568 35,000  Level FlightAware ADS-B (KEIK)
09:44AM 39.8801 -102.3977 70° East 495 570 35,000  Level FlightAware ADS-B (KEIK)
09:45AM 39.9106 -102.2869 70° East 497 572 35,000  Level FlightAware ADS-B (KEIK)
09:45AM 39.9335 -102.2032 70° East 497 572 35,000  Level FlightAware ADS-B (KEIK)
09:46AM 39.9652 -102.0872 70° East 497 572 35,000  Level FlightAware ADS-B (KEIK)
09:47AM 40.0001 -101.9587 70° East 497 572 35,000  Level FlightAware ADS-B (KEIK)
09:47AM 40.0346 -101.8319 70° East 497 572 35,000  Level FlightAware ADS-B (KEIK)
09:48AM 40.0786 -101.6683 71° East 496 571 35,000  Level FlightAware ADS-B (KEIK)
09:49AM 40.1111 -101.5469 71° East 497 572 35,000  Level FlightAware ADS-B (KEIK)
09:50AM 40.1407 -101.4356 71° East 497 572 35,000  Level FlightAware ADS-B (KEIK)
09:50AM 40.1711 -101.3215 71° East 497 572 35,000  Level FlightAware ADS-B (KEIK)
09:51AM 40.1983 -101.2184 71° East 498 573 35,000  Level FlightAware ADS-B (KEIK)
09:52AM 40.2460 -101.0366 71° East 500 575 35,000  Level FlightAware ADS-B (KEIK)
09:53AM 40.2949 -100.8488 71° East 501 577 35,000  Level FlightAware ADS-B (KEIK)
09:55AM 40.3550 -100.6211 71° East 496 571 35,000  Level Minneapolis Center
10:01AM 40.6188 -99.5675 71° East 501 577 35,000  Level FlightAware ADS-B
10:02AM 40.6672 -99.3719 71° East 500 575 35,000  Level Minneapolis Center
10:07AM 40.8933 -98.4251 71° East 502 578 35,000  Level FlightAware ADS-B
10:08AM 40.9231 -98.2925 71° East 502 578 35,000  Level Minneapolis Center
10:14AM 41.1610 -97.2514 71° East 500 575 35,000  Level FlightAware ADS-B
10:15AM 41.2115 -97.0226 74° East 500 575 35,000  Level FlightAware ADS-B
10:17AM 41.2673 -96.7676 74° East 500 575 35,000  Level FlightAware ADS-B
10:20AM 41.3913 -96.1889 74° East 502 578 35,000  Level FlightAware ADS-B
10:21AM 41.4504 -95.9072 74° East 502 578 35,000  Level FlightAware ADS-B
10:23AM 41.4661 -95.8322 74° East 502 578 35,000  Level FlightAware ADS-B
10:24AM 41.5244 -95.5495 75° East 504 580 35,000  Level FlightAware ADS-B
10:29AM 41.7141 -94.6024 75° East 508 585 35,000  Level FlightAware ADS-B
10:33AM 41.8560 -93.8628 75° East 510 587 35,000  Level FlightAware ADS-B
10:33AM 41.8731 -93.7721 76° East 510 587 35,000  Level FlightAware ADS-B
10:35AM 41.9347 -93.4403 76° East 512 589 35,000 -360 Level FlightAware ADS-B
10:38AM 42.0134 -92.9319 78° East 516 594 33,500 -540 Descending FlightAware ADS-B
10:39AM 42.0282 -92.7420 84° East 513 590 33,000 -2,880 Descending FlightAware ADS-B
10:40AM 42.0452 -92.5024 84° East 473 544 27,800 -3,000 Descending FlightAware ADS-B
10:42AM 42.0651 -92.2023 85° East 446 513 24,200 -1,680 Descending FlightAware ADS-B
10:42AM 42.0715 -92.1068 85° East 442 509 24,000 -240 Descending FlightAware ADS-B
10:43AM 42.0766 -92.0288 85° East 446 513 24,000  Level FlightAware ADS-B
10:43AM 42.0823 -91.9413 85° East 449 517 24,000  Level FlightAware ADS-B
10:44AM 42.0938 -91.7602 85° East 448 516 24,000  Level FlightAware ADS-B
10:45AM 42.1022 -91.6364 85° East 447 514 24,000  Level Chicago Center
10:46AM 42.1108 -91.4719 86° East 445 512 24,000 -780 Level Chicago Center
10:47AM 42.1239 -91.2756 85° East 444 511 22,500 -1,860 Descending Chicago Center
10:48AM 42.1322 -91.1161 86° East 438 504 20,200 -2,280 Descending Chicago Center
10:49AM 42.1403 -90.9636 86° East 421 484 17,900 -2,220 Descending Chicago Center
10:50AM 42.1486 -90.8108 86° East 414 476 15,700 -2,100 Descending Chicago Center
10:51AM 42.1572 -90.6628 85° East 403 464 13,700 -1,380 Descending Chicago Center
10:52AM 42.1650 -90.5183 86° East 392 451 12,900 -420 Descending Chicago Center
10:54AM 42.1739 -90.3442 86° East 393 452 12,900  Level Chicago Center
10:55AM 42.1808 -90.2000 86° East 389 448 13,000  Climbing Chicago Center
10:56AM 42.1883 -90.0539 86° East 393 452 13,000 -360 Level Chicago Center
10:57AM 42.1967 -89.9150 85° East 383 441 12,300 -1,260 Descending Chicago Center
10:58AM 42.2003 -89.8008 88° East 328 377 10,500 -2,220 Descending Chicago Center
10:59AM 42.1953 -89.6617 93° East 314 361 7,800 -2,280 Descending Chicago Center
11:00AM 42.1853 -89.5472 97° East 310 357 5,800 -1,860 Descending Chicago Center
11:01AM 42.1739 -89.4328 98° East 310 357 4,000 -1,440 Descending Chicago Center
11:02AM 42.1631 -89.3153 97° East 307 353 2,900 -720 Descending Chicago Center
11:03AM 42.1558 -89.2317 97° East 283 326 2,600 -240 Descending Chicago Center
11:04AM 42.1556 -89.1631 90° East 272 313 2,500 -120 Descending Chicago Center
11:06AM 42.1833 -89.0833 90° East  Level FlightAware Approximate